Time;durP1;ratioP1;P1;durP2;ratioP2;P2;SDS_P1;SDS_P2;PMS_P1;PMS_P2;Temp;Humidity;BMP_temperature;BMP_pressure;BME280_temperature;BME280_humidity;BME280_pressure;Samples;Min_cycle;Max_cycle;Signal;HPM_P1;HPM_P2
2023/03/31 00:02:12;;;;;;;27.55;17.00;;;;;;;8.76;97.22;99107.73;1666585;85;25480;-66
2023/03/31 00:04:32;;;;;;;28.57;16.97;;;;;;;8.78;97.80;99112.23;1656816;85;25873;-66
2023/03/31 00:06:58;;;;;;;29.07;17.90;;;;;;;8.84;98.88;99107.47;1665222;85;27510;-65
2023/03/31 00:09:25;;;;;;;32.75;17.82;;;;;;;8.87;98.64;99102.75;1641922;85;25724;-64
2023/03/31 00:11:52;;;;;;;24.75;16.90;;;;;;;8.91;98.21;99107.73;1639869;85;25634;-65
2023/03/31 00:14:19;;;;;;;30.15;16.42;;;;;;;8.96;98.18;99116.98;1652098;85;25907;-65
2023/03/31 00:16:46;;;;;;;24.52;16.50;;;;;;;8.97;98.04;99113.16;1659409;85;25434;-65
2023/03/31 00:19:19;;;;;;;29.77;17.60;;;;;;;9.00;97.87;99108.46;1640575;86;28076;-65
2023/03/31 00:21:48;;;;;;;28.52;15.43;;;;;;;9.01;97.68;99107.36;1665302;85;25815;-64
2023/03/31 00:24:15;;;;;;;25.00;14.47;;;;;;;9.03;97.36;99101.08;1668826;85;25411;-64
2023/03/31 00:26:42;;;;;;;24.35;14.55;;;;;;;9.04;97.80;99105.36;1642171;87;25590;-65
2023/03/31 00:29:11;;;;;;;22.93;14.15;;;;;;;9.07;97.69;99105.25;1638142;86;25660;-63
2023/03/31 00:31:39;;;;;;;;;;;;;;;9.10;97.16;99099.20;1662095;85;27586;-66
2023/03/31 00:34:06;;;;;;;16.70;11.65;;;;;;;9.10;97.04;99095.16;1669006;85;25608;-63
2023/03/31 00:36:35;;;;;;;25.92;14.38;;;;;;;9.12;96.69;99103.71;1659309;85;25632;-64
2023/03/31 00:39:12;;;;;;;20.77;11.63;;;;;;;9.11;96.84;99104.28;1658382;85;25773;-63
2023/03/31 00:41:38;;;;;;;18.50;12.23;;;;;;;9.13;96.79;99106.08;1648760;85;25472;-64
2023/03/31 00:44:21;;;;;;;20.10;12.37;;;;;;;9.14;96.71;99109.02;1650325;85;27569;-64
2023/03/31 00:47:18;;;;;;;19.30;11.85;;;;;;;9.16;96.62;99112.74;1668233;85;25564;-64
2023/03/31 00:49:53;;;;;;;21.93;12.07;;;;;;;9.17;96.59;99115.66;1655238;85;25479;-64
2023/03/31 00:52:31;;;;;;;19.30;12.00;;;;;;;9.19;96.69;99115.33;1666709;85;26547;-64
2023/03/31 00:55:02;;;;;;;18.98;11.63;;;;;;;9.21;96.38;99108.50;1653095;85;25614;-64
2023/03/31 00:57:32;;;;;;;16.30;11.45;;;;;;;9.23;96.21;99105.45;1639108;85;28383;-64
2023/03/31 01:00:13;;;;;;;18.00;11.35;;;;;;;9.23;96.07;99101.41;1655463;84;25927;-64
2023/03/31 01:02:31;;;;;;;16.00;10.93;;;;;;;9.25;95.96;99100.53;1666723;85;25440;-64
2023/03/31 01:05:01;;;;;;;18.50;11.22;;;;;;;9.26;96.10;99100.75;1669492;85;25503;-64
2023/03/31 01:07:39;;;;;;;17.48;10.32;;;;;;;9.26;95.76;99094.81;1669113;85;25525;-64
2023/03/31 01:10:07;;;;;;;16.65;10.53;;;;;;;9.27;95.81;99099.08;1669447;84;29708;-64
2023/03/31 01:12:42;;;;;;;15.70;9.20;;;;;;;9.28;95.51;99103.36;1654477;84;25768;-65
2023/03/31 01:15:09;;;;;;;17.40;9.90;;;;;;;9.30;95.81;99098.99;1659650;85;25921;-64
2023/03/31 01:17:37;;;;;;;17.70;10.95;;;;;;;9.30;96.05;99090.33;1700829;82;25498;-64
2023/03/31 01:20:18;;;;;;;18.15;10.78;;;;;;;9.31;95.62;99090.57;1699240;82;25438;-64
2023/03/31 01:23:26;;;;;;;19.02;10.82;;;;;;;9.31;95.63;99084.36;1724674;82;27684;-64
2023/03/31 01:26:08;;;;;;;18.00;10.77;;;;;;;9.32;95.20;99088.08;1679577;82;25570;-65
2023/03/31 01:28:52;;;;;;;13.62;10.23;;;;;;;9.33;95.36;99088.33;1684857;84;25553;-65
2023/03/31 01:31:59;;;;;;;17.35;10.72;;;;;;;9.33;95.48;99082.92;1721597;82;25559;-65
2023/03/31 01:34:35;;;;;;;16.93;11.15;;;;;;;9.35;95.05;99074.50;1707574;82;25538;-64
2023/03/31 01:37:13;;;;;;;18.65;12.23;;;;;;;9.34;95.06;99079.66;1731848;82;27425;-64
2023/03/31 01:39:51;;;;;;;20.90;11.83;;;;;;;9.35;95.08;99073.16;1662745;85;25486;-64
2023/03/31 01:42:35;;;;;;;16.52;11.20;;;;;;;9.36;95.06;99078.77;1649419;85;25809;-64
2023/03/31 01:45:32;;;;;;;16.75;11.83;;;;;;;9.35;94.78;99070.45;1651372;85;25595;-64
2023/03/31 01:48:11;;;;;;;18.98;11.95;;;;;;;9.37;94.56;99076.88;1670607;84;25539;-64
2023/03/31 01:50:54;;;;;;;19.70;12.50;;;;;;;9.37;94.51;99067.43;1652628;85;27744;-64
2023/03/31 01:53:29;;;;;;;17.65;12.47;;;;;;;9.36;94.41;99066.62;1666563;85;26561;-64
2023/03/31 01:56:29;;;;;;;17.80;12.43;;;;;;;9.37;94.35;99072.83;1651151;85;25866;-64
2023/03/31 01:59:05;;;;;;;20.48;12.35;;;;;;;9.35;94.26;99073.94;1666420;85;26316;-64
2023/03/31 02:01:43;;;;;;;16.05;11.45;;;;;;;9.34;94.13;99081.02;1616525;87;25478;-63
2023/03/31 02:04:20;;;;;;;22.98;12.75;;;;;;;9.33;93.93;99081.58;1640478;87;28049;-63
2023/03/31 02:06:52;;;;;;;19.73;13.35;;;;;;;9.31;94.07;99079.77;1610498;87;25457;-64
2023/03/31 02:09:30;;;;;;;21.15;12.37;;;;;;;9.31;94.19;99087.87;1599638;89;25628;-65
2023/03/31 02:11:59;;;;;;;16.73;12.60;;;;;;;9.29;94.06;99078.52;1614988;87;26177;-64
2023/03/31 02:14:30;;;;;;;19.03;13.57;;;;;;;9.30;93.95;99085.50;1623186;87;25893;-64
2023/03/31 02:17:01;;;;;;;16.85;12.10;;;;;;;9.27;93.92;99086.94;1623232;87;28302;-66
2023/03/31 02:19:32;;;;;;;21.17;13.25;;;;;;;9.27;94.34;99073.44;1624711;87;25688;-65
2023/03/31 02:22:02;;;;;;;23.65;14.00;;;;;;;9.27;94.16;99081.53;1649476;85;25470;-64
2023/03/31 02:24:32;;;;;;;20.82;12.20;;;;;;;9.25;93.97;99079.73;1715733;82;25620;-64
2023/03/31 02:27:05;;;;;;;21.65;12.95;;;;;;;9.25;93.80;99083.00;1654956;84;25729;-64
2023/03/31 02:29:32;;;;;;;19.57;11.88;;;;;;;9.24;93.95;99076.80;1701107;82;27588;-64
2023/03/31 02:32:25;;;;;;;19.87;12.80;;;;;;;9.22;93.67;99079.03;1726485;82;25685;-65
2023/03/31 02:34:54;;;;;;;18.98;12.78;;;;;;;9.22;93.65;99087.13;1717044;82;25769;-65
2023/03/31 02:37:21;;;;;;;18.50;12.80;;;;;;;9.21;93.72;99088.80;1672446;84;25740;-65
2023/03/31 02:39:51;;;;;;;20.10;12.55;;;;;;;9.19;93.66;99098.58;1689498;84;25639;-65
2023/03/31 02:42:19;;;;;;;22.10;12.85;;;;;;;9.19;94.06;99097.23;1713495;82;27548;-65
2023/03/31 02:44:47;;;;;;;17.20;12.28;;;;;;;9.18;94.16;99083.52;1710036;82;25975;-64
2023/03/31 02:47:17;;;;;;;19.67;12.37;;;;;;;9.19;94.04;99084.30;1703537;82;25553;-65
2023/03/31 02:49:48;;;;;;;21.40;12.93;;;;;;;9.18;93.71;99086.22;1709623;82;25658;-65
2023/03/31 02:53:02;;;;;;;19.23;11.55;;;;;;;9.19;93.90;99090.48;1723825;82;25907;-65
2023/03/31 02:55:56;;;;;;;20.05;12.30;;;;;;;9.18;93.85;99090.27;1734366;82;29636;-66
2023/03/31 02:59:03;;;;;;;16.32;11.68;;;;;;;9.18;94.15;99090.80;1669936;84;25598;-66
2023/03/31 03:01:44;;;;;;;21.25;12.60;;;;;;;9.16;93.66;99088.46;1691110;84;25564;-64
2023/03/31 03:04:40;;;;;;;19.65;12.60;;;;;;;9.15;93.53;99086.87;1703632;82;27664;-64
2023/03/31 03:07:44;;;;;;;18.85;12.45;;;;;;;9.14;93.67;99088.79;1676529;84;25596;-63
2023/03/31 03:10:22;;;;;;;18.87;11.20;;;;;;;9.12;93.79;99088.30;1698649;82;29629;-65
2023/03/31 03:13:00;;;;;;;19.05;11.93;;;;;;;9.10;93.48;99087.84;1703380;82;25776;-65
2023/03/31 03:15:50;;;;;;;18.00;12.37;;;;;;;9.09;93.62;99090.87;1634294;86;25699;-65
2023/03/31 03:18:16;;;;;;;;;;;;;;;9.07;93.86;99089.06;1627521;86;26259;-63
2023/03/31 03:20:47;;;;;;;14.80;11.53;;;;;;;9.06;93.55;99099.08;1643544;86;25547;-63
2023/03/31 03:23:11;;;;;;;19.90;11.78;;;;;;;9.05;93.50;99105.58;1637934;86;29734;-63
2023/03/31 03:25:37;;;;;;;19.10;12.45;;;;;;;9.06;93.45;99106.36;1640946;86;25857;-64
2023/03/31 03:28:04;;;;;;;22.55;12.55;;;;;;;9.05;93.79;99105.58;1625384;86;25606;-64
2023/03/31 03:30:30;;;;;;;19.62;13.05;;;;;;;9.05;93.63;99109.63;1630327;86;25544;-64
2023/03/31 03:32:57;;;;;;;17.48;11.63;;;;;;;9.06;93.63;99109.05;1601748;88;25662;-63
2023/03/31 03:35:25;;;;;;;22.35;12.60;;;;;;;9.06;93.46;99103.13;1603880;86;27465;-64
2023/03/31 03:37:51;;;;;;;17.62;12.03;;;;;;;9.07;94.00;99106.60;1627347;86;25392;-64
2023/03/31 03:40:18;;;;;;;18.50;11.33;;;;;;;9.04;93.55;99117.50;1642222;86;25588;-63
2023/03/31 03:42:44;;;;;;;16.00;11.10;;;;;;;9.05;93.43;99122.33;1642913;86;27727;-63
2023/03/31 03:45:10;;;;;;;18.77;11.53;;;;;;;9.04;93.30;99116.16;1623231;86;25777;-63
2023/03/31 03:47:37;;;;;;;17.90;12.25;;;;;;;9.05;93.43;99118.28;1624913;86;27521;-64
2023/03/31 03:50:05;;;;;;;18.12;11.88;;;;;;;9.04;93.96;99113.98;1598743;88;25604;-64
2023/03/31 03:52:31;;;;;;;18.05;11.28;;;;;;;9.03;93.08;99116.47;1670859;82;25842;-64
2023/03/31 03:54:58;;;;;;;17.37;11.38;;;;;;;9.04;93.02;99120.73;1736652;82;25584;-65
2023/03/31 03:57:25;;;;;;;17.87;11.90;;;;;;;9.03;92.87;99124.56;1718761;82;25419;-64
2023/03/31 03:59:51;;;;;;;15.98;10.93;;;;;;;8.98;92.75;99111.48;1667282;84;27605;-62
2023/03/31 04:02:17;;;;;;;17.98;10.85;;;;;;;8.95;92.45;99117.52;1684880;84;25456;-65
2023/03/31 04:04:44;;;;;;;18.55;11.25;;;;;;;8.93;92.35;99131.91;1728618;82;25803;-65
2023/03/31 04:07:11;;;;;;;18.90;12.28;;;;;;;8.91;92.41;99129.31;1702927;82;25821;-65
2023/03/31 04:09:37;;;;;;;16.07;11.08;;;;;;;8.88;92.38;99127.27;1695894;84;25604;-65
2023/03/31 04:12:04;;;;;;;18.30;11.30;;;;;;;8.86;92.53;99140.28;1708867;82;29696;-65
2023/03/31 04:14:30;;;;;;;21.75;12.88;;;;;;;8.84;92.57;99150.61;1680962;82;25944;-65
2023/03/31 04:16:57;;;;;;;16.95;11.50;;;;;;;8.83;92.77;99146.33;1710626;82;25894;-65
2023/03/31 04:19:26;;;;;;;18.30;10.95;;;;;;;8.81;92.72;99135.08;1686549;84;25505;-66
2023/03/31 04:22:01;;;;;;;20.02;11.90;;;;;;;8.78;92.58;99141.36;1711100;82;25615;-65
2023/03/31 04:24:31;;;;;;;20.05;12.85;;;;;;;8.78;92.50;99139.20;1716830;82;27549;-65
2023/03/31 04:26:59;;;;;;;18.70;12.23;;;;;;;8.74;92.50;99139.06;1706700;82;28114;-65
2023/03/31 04:29:26;;;;;;;17.35;12.90;;;;;;;8.72;92.87;99139.95;1720503;82;25889;-65
2023/03/31 04:31:59;;;;;;;18.90;12.10;;;;;;;8.70;92.74;99135.45;1706087;82;25808;-64
2023/03/31 04:34:25;;;;;;;17.27;12.03;;;;;;;8.68;92.88;99134.95;1702460;82;26088;-64
2023/03/31 04:36:55;;;;;;;19.85;12.70;;;;;;;8.67;92.95;99134.73;1667845;84;27558;-64
2023/03/31 04:39:25;;;;;;;20.40;12.43;;;;;;;8.66;93.07;99131.02;1689131;84;25644;-65
2023/03/31 04:41:50;;;;;;;21.15;12.95;;;;;;;8.65;93.02;99134.28;1651872;85;25474;-65
2023/03/31 04:44:16;;;;;;;18.40;12.30;;;;;;;8.64;93.11;99124.60;1657946;85;25594;-64
2023/03/31 04:46:42;;;;;;;20.57;11.78;;;;;;;8.64;93.04;99127.86;1648315;85;25521;-65
2023/03/31 04:49:08;;;;;;;18.77;13.58;;;;;;;8.63;92.97;99122.23;1646037;85;27501;-65
2023/03/31 04:51:34;;;;;;;17.70;12.63;;;;;;;8.63;92.90;99135.14;1650079;85;25929;-65
2023/03/31 04:54:01;;;;;;;20.25;12.63;;;;;;;8.60;92.89;99123.67;1639880;85;25433;-64
2023/03/31 04:56:27;;;;;;;18.95;12.58;;;;;;;8.63;92.78;99114.92;1659426;84;25636;-64
2023/03/31 04:58:54;;;;;;;18.73;11.70;;;;;;;8.64;92.71;99120.56;1659583;85;25448;-65
2023/03/31 05:01:20;;;;;;;17.52;12.20;;;;;;;8.64;92.64;99116.52;1723935;82;27442;-65
2023/03/31 05:03:47;;;;;;;22.70;13.03;;;;;;;8.64;92.59;99116.52;1712368;81;25872;-64
2023/03/31 05:06:15;;;;;;;18.35;11.10;;;;;;;8.65;92.57;99109.20;1717142;82;25590;-64
2023/03/31 05:08:43;;;;;;;17.75;11.50;;;;;;;8.67;92.85;99115.87;1700256;82;25534;-63
2023/03/31 05:11:10;;;;;;;16.87;11.45;;;;;;;8.67;92.58;99119.13;1703444;82;25615;-63
2023/03/31 05:13:37;;;;;;;17.52;12.78;;;;;;;8.66;92.35;99116.19;1703373;82;27501;-64
2023/03/31 05:16:11;;;;;;;20.80;12.35;;;;;;;8.67;92.52;99122.61;1715515;82;25854;-64
2023/03/31 05:18:37;;;;;;;26.45;13.08;;;;;;;8.69;92.52;99116.33;1711678;82;25609;-64
2023/03/31 05:21:17;;;;;;;21.45;12.18;;;;;;;8.73;92.46;99114.55;1711736;82;25724;-65
2023/03/31 05:23:45;;;;;;;21.37;11.53;;;;;;;8.75;92.56;99109.65;1693066;84;25424;-65
2023/03/31 05:26:13;;;;;;;23.73;13.25;;;;;;;8.82;92.83;99109.14;1693296;84;28209;-63
2023/03/31 05:28:41;;;;;;;18.42;11.43;;;;;;;8.88;92.80;99119.95;1715197;82;25812;-64
2023/03/31 05:31:11;;;;;;;20.02;12.13;;;;;;;8.90;92.82;99109.63;1712767;82;25829;-64
2023/03/31 05:33:40;;;;;;;21.80;13.40;;;;;;;8.94;92.82;99113.27;1720094;82;25896;-64
2023/03/31 05:36:11;;;;;;;18.65;12.98;;;;;;;8.98;92.67;99114.19;1701264;82;25463;-65
2023/03/31 05:38:40;;;;;;;20.77;12.95;;;;;;;9.04;92.75;99112.10;1716702;82;27552;-65
2023/03/31 05:41:08;;;;;;;20.62;12.47;;;;;;;9.09;92.49;99108.41;1736339;82;32883;-65
2023/03/31 05:43:36;;;;;;;23.02;13.03;;;;;;;9.09;92.32;99107.05;1723524;82;25563;-65
2023/03/31 05:46:04;;;;;;;21.75;13.22;;;;;;;9.13;92.29;99100.69;1714957;82;26175;-65
2023/03/31 05:48:30;;;;;;;20.27;13.40;;;;;;;9.15;92.28;99093.62;1729572;82;25853;-65
2023/03/31 05:50:59;;;;;;;21.73;14.80;;;;;;;9.18;92.34;99094.85;1708036;82;27629;-65
2023/03/31 05:53:26;;;;;;;20.08;14.10;;;;;;;9.24;92.48;99093.55;1699015;82;25606;-65
2023/03/31 05:56:00;;;;;;;26.23;14.87;;;;;;;9.35;92.69;99100.14;1697639;82;25686;-65
2023/03/31 05:58:28;;;;;;;23.45;15.38;;;;;;;9.44;92.79;99100.07;1714531;82;25911;-65
2023/03/31 06:01:10;;;;;;;24.18;15.53;;;;;;;9.49;92.50;99093.90;1713830;82;25543;-65
2023/03/31 06:03:40;;;;;;;24.80;15.30;;;;;;;9.54;92.25;99091.00;1721807;81;28091;-64
2023/03/31 06:06:08;;;;;;;;;;;;;;;9.57;91.82;99098.20;1720912;82;25576;-65
2023/03/31 06:08:36;;;;;;;26.90;15.60;;;;;;;9.57;91.50;99097.66;1714853;82;25589;-65
2023/03/31 06:11:06;;;;;;;25.30;15.60;;;;;;;9.56;91.43;99087.97;1712891;82;25553;-65
2023/03/31 06:13:35;;;;;;;26.77;15.58;;;;;;;9.60;91.51;99094.27;1717156;82;25843;-65
2023/03/31 06:16:02;;;;;;;21.25;14.38;;;;;;;9.65;91.79;99095.98;1715171;82;27488;-66
2023/03/31 06:18:31;;;;;;;25.85;16.40;;;;;;;9.73;91.76;99095.13;1711293;82;25663;-66
2023/03/31 06:20:58;;;;;;;26.00;16.62;;;;;;;9.76;91.32;99094.47;1734084;82;25397;-66
2023/03/31 06:23:25;;;;;;;28.80;17.10;;;;;;;9.80;91.36;99091.31;1698544;82;27760;-64
2023/03/31 06:25:53;;;;;;;26.77;17.20;;;;;;;9.85;91.22;99091.67;1698611;82;25663;-64
2023/03/31 06:28:20;;;;;;;25.10;15.68;;;;;;;9.88;90.84;99098.55;1714296;82;28166;-65
2023/03/31 06:30:47;;;;;;;25.80;16.02;;;;;;;9.91;90.69;99099.23;1730866;82;25434;-65
2023/03/31 06:33:13;;;;;;;26.87;17.17;;;;;;;9.95;90.85;99098.01;1710440;82;25559;-66
2023/03/31 06:35:40;;;;;;;23.47;14.55;;;;;;;9.98;90.43;99102.75;1690530;82;25476;-65
2023/03/31 06:38:06;;;;;;;26.97;15.95;;;;;;;10.01;90.18;99095.88;1689906;82;25494;-65
2023/03/31 06:40:33;;;;;;;19.95;14.85;;;;;;;10.02;90.13;99101.52;1699799;82;27532;-65
2023/03/31 06:42:59;;;;;;;20.68;14.07;;;;;;;10.04;89.79;99106.02;1721644;82;25817;-65
2023/03/31 06:45:26;;;;;;;23.55;14.60;;;;;;;10.06;89.84;99096.47;1729920;82;25591;-66
2023/03/31 06:47:52;;;;;;;25.30;15.38;;;;;;;10.16;90.27;99093.09;1711525;82;25648;-65
2023/03/31 06:50:18;;;;;;;27.73;15.45;;;;;;;10.24;89.77;99084.11;1713161;82;25537;-65
2023/03/31 06:52:45;;;;;;;19.55;14.20;;;;;;;10.40;89.90;99085.61;1718762;82;27544;-65
2023/03/31 06:55:12;;;;;;;22.77;14.28;;;;;;;10.66;89.70;99089.35;1736641;82;25591;-66
2023/03/31 06:57:38;;;;;;;21.70;14.75;;;;;;;10.84;88.61;99093.95;1682768;84;25492;-65
2023/03/31 07:00:07;;;;;;;19.95;14.45;;;;;;;10.95;88.01;99095.08;1694123;84;25676;-65
2023/03/31 07:02:34;;;;;;;20.15;13.88;;;;;;;10.94;86.93;99091.35;1717799;82;25416;-65
2023/03/31 07:05:00;;;;;;;21.82;14.33;;;;;;;10.87;86.40;99085.73;1730555;82;27851;-66
2023/03/31 07:07:26;;;;;;;22.70;15.43;;;;;;;10.81;86.01;99090.02;1704225;82;25552;-66
2023/03/31 07:09:52;;;;;;;23.00;14.87;;;;;;;10.73;85.76;99097.69;1706194;82;25380;-67
2023/03/31 07:12:19;;;;;;;20.60;14.63;;;;;;;10.68;86.28;99091.16;1714364;82;26085;-66
2023/03/31 07:14:45;;;;;;;20.70;15.58;;;;;;;10.69;86.68;99087.88;1675277;84;25460;-65
2023/03/31 07:17:11;;;;;;;22.02;14.68;;;;;;;10.78;87.09;99085.28;1694333;84;27557;-65
2023/03/31 07:19:40;;;;;;;21.30;13.70;;;;;;;10.90;86.86;99083.13;1713994;82;32707;-65
2023/03/31 07:22:06;;;;;;;20.60;13.58;;;;;;;10.94;85.84;99090.00;1698018;84;25650;-65
2023/03/31 07:24:32;;;;;;;21.23;14.98;;;;;;;11.00;86.46;99085.38;1709800;82;25612;-65
2023/03/31 07:27:01;;;;;;;21.23;14.25;;;;;;;11.13;85.98;99084.77;1722523;82;25550;-65
2023/03/31 07:29:26;;;;;;;23.80;14.98;;;;;;;11.24;85.59;99078.87;1715575;82;27525;-65
2023/03/31 07:31:52;;;;;;;19.95;14.05;;;;;;;11.28;84.98;99082.49;1698003;82;25842;-65
2023/03/31 07:34:19;;;;;;;20.55;13.93;;;;;;;11.29;84.31;99087.56;1702191;82;25422;-65
2023/03/31 07:36:45;;;;;;;21.75;13.00;;;;;;;11.28;84.06;99090.03;1713193;82;25615;-65
2023/03/31 07:39:12;;;;;;;18.95;12.73;;;;;;;11.31;83.81;99083.16;1707978;82;25699;-65
2023/03/31 07:41:39;;;;;;;18.57;13.62;;;;;;;11.41;83.99;99088.09;1699096;82;27505;-65
2023/03/31 07:44:06;;;;;;;18.50;13.08;;;;;;;11.57;83.28;99085.43;1730578;82;25459;-65
2023/03/31 07:46:32;;;;;;;21.00;12.88;;;;;;;11.76;83.42;99083.42;1700135;82;25463;-65
2023/03/31 07:49:02;;;;;;;24.82;14.58;;;;;;;12.09;84.25;99086.45;1728956;82;25765;-65
2023/03/31 07:51:27;;;;;;;20.88;12.75;;;;;;;12.45;84.21;99077.27;1714908;82;25654;-65
2023/03/31 07:53:53;;;;;;;19.30;12.13;;;;;;;12.83;81.83;99084.53;1728391;82;27481;-65
2023/03/31 07:56:23;;;;;;;18.10;11.75;;;;;;;12.94;81.04;99071.20;1716158;82;25428;-65
2023/03/31 07:58:51;;;;;;;22.27;12.43;;;;;;;13.15;78.38;99079.03;1699577;82;25483;-64
2023/03/31 08:01:24;;;;;;;17.48;12.33;;;;;;;13.21;78.52;99070.25;1706625;82;26042;-67
2023/03/31 08:03:51;;;;;;;16.60;11.50;;;;;;;13.36;77.81;99072.70;1697750;82;25669;-67
2023/03/31 08:06:22;;;;;;;20.35;11.70;;;;;;;13.39;77.05;99067.14;1670705;84;28134;-65
2023/03/31 08:08:50;;;;;;;18.45;12.50;;;;;;;13.57;77.81;99057.97;1677546;84;25832;-65
2023/03/31 08:11:18;;;;;;;18.32;11.85;;;;;;;13.83;77.92;99055.95;1693182;84;25871;-66
2023/03/31 08:13:44;;;;;;;20.33;12.33;;;;;;;13.97;76.62;99057.55;1719144;82;25577;-66
2023/03/31 08:16:11;;;;;;;19.82;13.22;;;;;;;14.00;73.59;99056.83;1737110;82;25390;-65
2023/03/31 08:18:37;;;;;;;26.02;13.70;;;;;;;14.20;73.74;99052.12;1684652;82;27447;-66
2023/03/31 08:21:04;;;;;;;19.02;13.68;;;;;;;14.38;75.70;99032.00;1714348;82;25586;-65
2023/03/31 08:23:31;;;;;;;17.25;12.33;;;;;;;14.93;75.09;99033.58;1728164;82;25790;-65
2023/03/31 08:26:16;;;;;;;21.70;13.62;;;;;;;15.18;73.87;99031.19;1711753;82;25703;-65
2023/03/31 08:28:42;;;;;;;21.33;12.93;;;;;;;15.32;72.55;99027.84;1731898;81;25387;-66
2023/03/31 08:31:09;;;;;;;19.55;12.60;;;;;;;15.24;70.67;99035.16;1706927;82;28228;-66
2023/03/31 08:33:37;;;;;;;18.15;13.28;;;;;;;14.99;69.92;99025.89;1703201;82;25617;-65
2023/03/31 08:36:07;;;;;;;19.40;12.20;;;;;;;14.89;69.24;99035.48;1710469;82;25609;-66
2023/03/31 08:38:36;;;;;;;16.73;11.25;;;;;;;14.72;68.83;99031.36;1690229;84;25552;-66
2023/03/31 08:41:08;;;;;;;19.90;13.88;;;;;;;14.55;68.83;99027.98;1698852;82;25475;-66
2023/03/31 08:43:40;;;;;;;16.12;10.30;;;;;;;14.53;69.20;99027.56;1697935;82;27561;-65
2023/03/31 08:46:11;;;;;;;15.58;10.60;;;;;;;14.42;68.79;99040.23;1665813;84;25671;-66
2023/03/31 08:48:44;;;;;;;19.07;10.20;;;;;;;14.17;67.37;99033.81;1673948;84;25638;-65
2023/03/31 08:51:40;;;;;;;15.25;10.08;;;;;;;13.94;68.38;99033.80;1707842;82;25495;-65
2023/03/31 08:54:39;;;;;;;14.28;9.28;;;;;;;13.71;67.96;99025.64;1716857;82;25867;-65
2023/03/31 08:57:12;;;;;;;;;;;;;;;13.40;68.05;99021.16;1713133;82;28060;-65
2023/03/31 08:59:39;;;;;;;17.07;10.70;;;;;;;13.18;69.36;99013.17;1698658;82;26052;-66
2023/03/31 09:02:33;;;;;;;15.00;10.40;;;;;;;13.06;70.21;99015.45;1685080;84;25610;-65
2023/03/31 09:05:38;;;;;;;19.87;11.68;;;;;;;12.92;71.40;99009.70;1702234;82;25981;-65
2023/03/31 09:08:35;;;;;;;24.40;17.17;;;;;;;12.84;72.78;99006.84;1698033;84;25471;-66
2023/03/31 09:11:13;;;;;;;19.37;13.25;;;;;;;12.80;73.53;99011.39;1700259;82;27496;-66
2023/03/31 09:14:07;;;;;;;16.62;12.60;;;;;;;12.67;73.30;99008.61;1685618;84;25537;-65
2023/03/31 09:17:00;;;;;;;20.00;12.50;;;;;;;12.57;73.67;99010.52;1692565;84;25399;-65
2023/03/31 09:19:44;;;;;;;22.05;16.07;;;;;;;12.51;73.69;99006.72;1704749;82;25584;-66
2023/03/31 09:22:19;;;;;;;19.73;11.22;;;;;;;12.52;74.76;99000.14;1698229;82;25466;-65
2023/03/31 09:25:14;;;;;;;18.35;10.55;;;;;;;12.62;74.19;99002.11;1727145;82;27511;-65
2023/03/31 09:27:43;;;;;;;22.02;11.43;;;;;;;12.64;73.70;99003.89;1716030;82;25586;-65
2023/03/31 09:30:21;;;;;;;19.42;10.90;;;;;;;12.77;75.06;99000.47;1707588;82;25594;-65
2023/03/31 09:33:05;;;;;;;16.37;9.00;;;;;;;12.97;74.14;98995.27;1697328;84;26136;-65
2023/03/31 09:35:33;;;;;;;13.48;9.53;;;;;;;13.20;74.54;98983.73;1703597;83;25685;-65
2023/03/31 09:38:00;;;;;;;16.27;10.50;;;;;;;13.49;73.75;98980.22;1712457;83;28042;-64
2023/03/31 09:40:28;;;;;;;15.75;9.40;;;;;;;13.74;74.62;98981.45;1710716;83;25696;-67
2023/03/31 09:43:09;;;;;;;16.30;10.93;;;;;;;14.03;72.70;98982.48;1710503;83;25606;-64
2023/03/31 09:45:36;;;;;;;14.25;9.35;;;;;;;14.20;71.24;98984.72;1710502;83;25514;-65
2023/03/31 09:48:09;;;;;;;11.95;8.30;;;;;;;14.25;70.80;98976.81;1690278;83;25489;-65
2023/03/31 09:50:53;;;;;;;13.68;8.35;;;;;;;14.30;70.77;98975.13;1709495;83;29593;-65
2023/03/31 09:53:39;;;;;;;22.80;8.98;;;;;;;14.36;70.18;98983.98;1709825;83;25514;-64
2023/03/31 09:56:10;;;;;;;13.70;7.65;;;;;;;14.38;69.73;98971.37;1712323;83;25722;-64
2023/03/31 09:58:47;;;;;;;10.98;7.08;;;;;;;14.42;69.44;98970.87;1715334;83;25988;-65
2023/03/31 10:01:15;;;;;;;14.03;7.33;;;;;;;14.64;71.05;98968.45;1712193;83;25781;-65
2023/03/31 10:03:51;;;;;;;10.38;6.87;;;;;;;14.82;69.43;98964.03;1686816;83;27620;-64
2023/03/31 10:06:19;;;;;;;12.85;7.90;;;;;;;14.92;70.46;98963.38;1712960;83;25695;-65
2023/03/31 10:08:56;;;;;;;13.60;7.97;;;;;;;14.93;67.43;98962.24;1681898;83;25759;-65
2023/03/31 10:11:26;;;;;;;11.55;7.35;;;;;;;14.71;67.45;98955.74;1708330;82;25479;-66
2023/03/31 10:14:12;;;;;;;13.53;6.70;;;;;;;14.57;67.37;98960.95;1698190;82;25553;-65
2023/03/31 10:16:56;;;;;;;14.53;6.42;;;;;;;14.56;67.85;98952.01;1697941;82;27950;-64
2023/03/31 10:19:29;;;;;;;10.65;6.20;;;;;;;14.85;66.63;98948.33;1709147;82;25632;-65
2023/03/31 10:22:00;;;;;;;11.75;6.72;;;;;;;15.20;66.10;98943.66;1705982;82;25561;-66
2023/03/31 10:24:40;;;;;;;9.00;6.47;;;;;;;15.27;65.25;98952.70;1706969;82;25565;-66
2023/03/31 10:27:18;;;;;;;14.43;6.90;;;;;;;15.22;65.08;98951.68;1705489;82;25620;-67
2023/03/31 10:29:46;;;;;;;12.07;5.95;;;;;;;15.07;65.15;98928.95;1710050;82;28337;-65
2023/03/31 10:32:29;;;;;;;13.83;6.10;;;;;;;14.93;65.31;98939.09;1718860;82;25481;-67
2023/03/31 10:35:00;;;;;;;10.30;6.45;;;;;;;14.82;65.73;98931.95;1710533;82;25558;-68
2023/03/31 10:37:30;;;;;;;9.58;5.65;;;;;;;14.72;64.63;98932.80;1707401;82;25758;-66
2023/03/31 10:40:05;;;;;;;13.90;6.03;;;;;;;14.66;66.24;98928.85;1710067;82;25609;-68
2023/03/31 10:42:32;;;;;;;14.33;5.53;;;;;;;14.70;67.05;98932.39;1699121;82;27389;-62
2023/03/31 10:45:31;;;;;;;8.50;5.42;;;;;;;14.75;66.87;98930.70;1722634;81;25605;-62
2023/03/31 10:48:00;;;;;;;10.03;5.08;;;;;;;14.81;66.62;98924.34;1704750;82;25448;-63
2023/03/31 10:50:35;;;;;;;9.73;5.25;;;;;;;15.10;65.50;98930.12;1710118;82;25387;-63
2023/03/31 10:53:12;;;;;;;12.18;4.28;;;;;;;15.40;66.72;98924.61;1716369;82;25605;-64
2023/03/31 10:56:01;;;;;;;9.20;4.05;;;;;;;15.76;65.67;98921.45;1702106;82;27386;-63
2023/03/31 10:59:11;;;;;;;11.78;4.05;;;;;;;16.10;64.19;98924.05;1698114;82;25560;-62
2023/03/31 11:02:33;;;;;;;9.38;3.83;;;;;;;16.09;62.26;98927.36;1702234;82;25414;-63
2023/03/31 11:05:30;;;;;;;12.53;4.17;;;;;;;15.97;62.63;98916.17;1735999;82;25556;-63
2023/03/31 11:11:06;;;;;;;11.60;4.33;;;;;;;15.43;61.45;98905.38;1618675;88;26390;-63
2023/03/31 11:13:41;;;;;;;9.25;3.40;;;;;;;15.34;62.79;98911.70;1615100;88;25525;-63
2023/03/31 11:16:48;;;;;;;9.73;3.62;;;;;;;15.29;62.60;98918.29;1613997;88;25464;-63
2023/03/31 11:19:22;;;;;;;5.87;3.33;;;;;;;15.31;62.16;98904.48;1623160;88;25855;-62
2023/03/31 11:22:41;;;;;;;11.60;6.45;;;;;;;15.38;62.54;98894.23;1605484;88;25481;-61
2023/03/31 11:25:13;;;;;;;13.80;5.00;;;;;;;15.47;60.90;98925.25;1564241;90;29789;-63
2023/03/31 11:28:13;;;;;;;15.25;4.87;;;;;;;15.47;62.26;98887.88;1557618;91;25736;-61
2023/03/31 11:31:04;;;;;;;9.55;3.77;;;;;;;15.66;62.45;98891.55;1566257;89;26015;-62
2023/03/31 11:33:57;;;;;;;8.85;3.47;;;;;;;15.83;61.85;98885.50;1559919;91;25819;-63
2023/03/31 11:37:03;;;;;;;9.13;3.92;;;;;;;16.00;61.76;98879.17;1602635;88;25860;-62
2023/03/31 11:39:50;;;;;;;9.95;4.17;;;;;;;16.28;58.79;98888.67;1597035;89;27087;-61
2023/03/31 11:42:34;;;;;;;9.98;3.50;;;;;;;16.21;59.57;98873.08;1605705;88;25883;-61
2023/03/31 11:45:06;;;;;;;9.30;3.42;;;;;;;16.32;60.57;98886.17;1602231;89;25443;-61
2023/03/31 11:47:36;;;;;;;8.03;3.45;;;;;;;16.41;60.78;98868.89;1657274;83;25776;-52
2023/03/31 11:50:14;;;;;;;8.10;3.55;;;;;;;16.53;60.51;98855.50;1633019;86;25472;-56
2023/03/31 11:52:45;;;;;;;11.83;3.85;;;;;;;16.68;59.50;98865.87;1646747;86;27531;-55
2023/03/31 11:55:20;;;;;;;9.20;3.87;;;;;;;16.72;58.34;98866.67;1625027;86;25505;-57
2023/03/31 11:58:15;;;;;;;7.90;3.47;;;;;;;16.78;59.54;98858.30;1641209;86;25484;-57